createdAt,value
2022-10-15T00:01:54.714Z,12.9
2022-10-15T00:03:52.378Z,12.7
2022-10-15T00:09:53.127Z,12.8
2022-10-15T00:11:50.759Z,12.8
2022-10-15T00:15:46.040Z,12.7
2022-10-15T00:17:43.676Z,12.6
2022-10-15T00:19:49.247Z,12.6
2022-10-15T00:21:46.851Z,12.6
2022-10-15T00:23:44.535Z,12.5
2022-10-15T00:25:42.148Z,12.5
2022-10-15T00:27:39.781Z,12.5
2022-10-15T00:29:37.429Z,12.5
2022-10-15T00:31:35.066Z,12.6
2022-10-15T00:33:40.628Z,12.5
2022-10-15T00:35:38.272Z,12.6
2022-10-15T00:37:35.909Z,12.5
2022-10-15T00:39:33.547Z,12.4
2022-10-15T00:41:31.184Z,12.5
2022-10-15T00:43:28.834Z,12.4
2022-10-15T00:45:26.463Z,12.5
2022-10-15T00:47:32.054Z,12.4
2022-10-15T00:49:29.670Z,12.3
2022-10-15T00:51:27.315Z,12.3
2022-10-15T00:52:30.087Z,12.4
2022-10-15T00:54:27.717Z,12.2
2022-10-15T00:56:25.352Z,12.3
2022-10-15T00:58:22.987Z,12.3
2022-10-15T01:00:28.567Z,12.3
2022-10-15T01:02:26.556Z,12.4
2022-10-15T01:04:23.831Z,12.3
2022-10-15T01:06:21.476Z,12.3
2022-10-15T01:08:19.117Z,12.4
2022-10-15T01:10:16.769Z,12.4
2022-10-15T01:12:14.409Z,12.4
2022-10-15T01:14:19.960Z,12.5
2022-10-15T01:16:17.589Z,12.5
2022-10-15T01:18:15.210Z,12.5
2022-10-15T01:20:13.006Z,12.5
2022-10-15T01:22:10.514Z,12.5
2022-10-15T01:24:08.147Z,12.6
2022-10-15T01:26:05.761Z,12.5
2022-10-15T01:28:11.303Z,12.5
2022-10-15T01:30:08.916Z,12.5
2022-10-15T01:32:06.536Z,12.5
2022-10-15T01:34:04.251Z,12.5
2022-10-15T01:36:04.106Z,12.4
2022-10-15T01:37:59.473Z,12.4
2022-10-15T01:39:57.103Z,12.2
2022-10-15T01:42:02.658Z,12.2
2022-10-15T01:44:00.309Z,12.4
2022-10-15T01:48:24.940Z,12.2
2022-10-15T01:50:22.571Z,12.2
2022-10-15T01:52:20.264Z,12.3
2022-10-15T01:54:25.768Z,12.2
2022-10-15T01:56:23.400Z,12.2
2022-10-15T01:58:21.019Z,12.2
2022-10-15T02:00:18.682Z,12.3
2022-10-15T02:02:16.322Z,12.3
2022-10-15T02:04:13.946Z,12.3
2022-10-15T02:06:11.610Z,12.3
2022-10-15T02:08:17.138Z,12.2
2022-10-15T02:12:12.410Z,12.4
2022-10-15T02:14:10.055Z,12.3
2022-10-15T02:16:07.719Z,12.3
2022-10-15T02:18:05.366Z,12.2
2022-10-15T02:20:03.023Z,12.2
2022-10-15T02:22:08.576Z,12.2
2022-10-15T02:24:06.214Z,12.3
2022-10-15T02:26:03.862Z,12.2
2022-10-15T02:28:01.484Z,12.2
2022-10-15T02:31:56.768Z,12.2
2022-10-15T02:33:54.374Z,12.1
2022-10-15T02:35:59.940Z,12.1
2022-10-15T02:37:57.574Z,12.2
2022-10-15T02:39:55.203Z,12.1
2022-10-15T02:40:57.998Z,12.1
2022-10-15T02:42:55.628Z,12.2
2022-10-15T02:44:53.270Z,12.2
2022-10-15T02:46:50.922Z,12.1
2022-10-15T02:48:56.434Z,12.1
2022-10-15T02:50:54.060Z,12.2
2022-10-15T02:52:51.674Z,12.1
2022-10-15T02:54:49.319Z,12.2
2022-10-15T02:56:46.955Z,12
2022-10-15T03:00:42.290Z,12.2
2022-10-15T03:06:43.077Z,12.2
2022-10-15T03:08:40.714Z,12.2
2022-10-15T03:10:38.348Z,12.1
2022-10-15T03:12:35.968Z,12.1
2022-10-15T03:14:33.619Z,12.1
2022-10-15T03:16:39.148Z,12
2022-10-15T03:18:39.771Z,12.1
2022-10-15T03:20:34.443Z,12
2022-10-15T03:22:32.057Z,12
2022-10-15T03:24:29.734Z,12.1
2022-10-15T03:26:27.338Z,12
2022-10-15T03:28:25.047Z,12
2022-10-15T03:30:30.562Z,11.9
2022-10-15T03:32:28.248Z,11.9
2022-10-15T03:34:25.855Z,12
2022-10-15T03:37:26.468Z,12
2022-10-15T03:39:23.914Z,11.9
2022-10-15T03:41:21.515Z,11.9
2022-10-15T03:43:27.090Z,11.9
2022-10-15T03:45:24.736Z,12
2022-10-15T03:47:22.366Z,12
2022-10-15T03:49:20.003Z,12
2022-10-15T03:51:21.994Z,12
2022-10-15T03:53:15.288Z,11.9
2022-10-15T03:55:12.930Z,12
2022-10-15T03:57:18.470Z,12
2022-10-15T03:59:16.112Z,12
2022-10-15T04:01:13.841Z,11.9
2022-10-15T04:03:11.379Z,12
2022-10-15T04:05:08.984Z,12
2022-10-15T04:07:06.650Z,12
2022-10-15T04:09:04.290Z,12
2022-10-15T04:11:09.826Z,12
2022-10-15T04:13:07.471Z,12.1
2022-10-15T04:15:05.090Z,12
2022-10-15T04:17:02.731Z,11.9
2022-10-15T04:22:55.638Z,12
2022-10-15T04:26:58.818Z,12
2022-10-15T04:28:56.541Z,11.9
2022-10-15T04:29:59.394Z,11.9
2022-10-15T04:31:56.894Z,11.9
2022-10-15T04:33:54.370Z,12
2022-10-15T04:35:52.021Z,12
2022-10-15T04:37:57.575Z,11.9
2022-10-15T04:39:56.782Z,11.9
2022-10-15T04:41:54.357Z,11.9
2022-10-15T04:43:51.996Z,11.8
2022-10-15T04:45:49.636Z,11.8
2022-10-15T04:47:47.277Z,11.8
2022-10-15T04:49:44.942Z,12
2022-10-15T04:51:50.473Z,11.8
2022-10-15T04:53:48.120Z,11.9
2022-10-15T04:55:45.755Z,11.8
2022-10-15T04:57:43.405Z,11.9
2022-10-15T04:59:41.028Z,11.7
2022-10-15T05:01:38.672Z,11.8
2022-10-15T05:03:38.572Z,11.9
2022-10-15T05:05:42.020Z,11.8
2022-10-15T05:07:39.475Z,11.8
2022-10-15T05:09:37.407Z,11.7
2022-10-15T05:11:34.733Z,11.9
2022-10-15T05:13:32.374Z,12
2022-10-15T05:15:30.036Z,11.9
2022-10-15T05:17:27.649Z,11.9
2022-10-15T05:19:33.184Z,11.9
2022-10-15T05:21:30.809Z,12
2022-10-15T05:23:28.459Z,12
2022-10-15T05:25:56.324Z,12
2022-10-15T05:27:54.009Z,12.1
2022-10-15T05:29:51.635Z,12.1
2022-10-15T05:31:57.193Z,12.1
2022-10-15T05:33:54.815Z,12.2
2022-10-15T05:35:52.468Z,12.2
2022-10-15T05:37:50.096Z,12.2
2022-10-15T05:39:47.736Z,12.3
2022-10-15T05:41:45.386Z,12.3
2022-10-15T05:43:43.024Z,12.3
2022-10-15T05:45:48.581Z,12.5
2022-10-15T05:47:46.212Z,12.7
2022-10-15T05:51:41.595Z,12.6
2022-10-15T05:53:39.140Z,12.8
2022-10-15T05:55:36.790Z,12.6
2022-10-15T05:57:34.431Z,12.8
2022-10-15T05:59:39.982Z,12.8
2022-10-15T06:01:37.682Z,12.9
2022-10-15T06:03:35.242Z,12.8
2022-10-15T06:05:32.900Z,12.8
2022-10-15T06:07:30.539Z,12.8
2022-10-15T06:09:28.159Z,12.8
2022-10-15T06:11:25.792Z,12.9
2022-10-15T06:15:29.003Z,12.9
2022-10-15T06:17:26.880Z,13
2022-10-15T06:18:29.388Z,12.9
2022-10-15T06:20:27.029Z,13
2022-10-15T06:22:24.707Z,13
2022-10-15T06:24:22.322Z,13
2022-10-15T06:26:27.870Z,13
2022-10-15T06:28:25.521Z,13.1
2022-10-15T06:32:20.769Z,13.1
2022-10-15T06:34:18.417Z,13.2
2022-10-15T06:36:16.047Z,13.1
2022-10-15T06:38:13.701Z,13.1
2022-10-15T06:40:19.255Z,13.1
2022-10-15T06:42:16.920Z,13.2
2022-10-15T06:44:14.532Z,13.2
2022-10-15T06:48:09.787Z,13.2
2022-10-15T06:50:07.423Z,13.2
2022-10-15T06:52:05.114Z,13.2
2022-10-15T06:54:10.673Z,13.3
2022-10-15T06:56:08.312Z,13.3
2022-10-15T06:58:05.956Z,13.3
2022-10-15T07:00:03.590Z,13.3
2022-10-15T07:02:01.215Z,13.3
2022-10-15T07:03:58.865Z,13.3
2022-10-15T07:05:56.494Z,13.3
2022-10-15T07:08:02.044Z,13.3
2022-10-15T07:09:59.667Z,13.3
2022-10-15T07:11:57.298Z,13.4
2022-10-15T07:14:57.699Z,13.3
2022-10-15T07:16:55.325Z,13.3
2022-10-15T07:18:52.968Z,13.4
2022-10-15T07:20:58.564Z,13.3
2022-10-15T07:22:56.168Z,13.5
2022-10-15T07:24:53.788Z,13.4
2022-10-15T07:26:51.394Z,13.3
2022-10-15T07:28:49.093Z,13.4
2022-10-15T07:30:46.682Z,13.4
2022-10-15T07:32:46.390Z,13.4
2022-10-15T07:34:49.848Z,13.5
2022-10-15T07:36:47.490Z,13.4
2022-10-15T07:38:45.127Z,13.5
2022-10-15T07:40:42.745Z,13.5
2022-10-15T07:42:40.403Z,13.5
2022-10-15T07:44:38.029Z,13.5
2022-10-15T07:46:35.665Z,13.5
2022-10-15T07:48:41.233Z,13.4
2022-10-15T07:50:40.438Z,13.5
2022-10-15T07:52:36.492Z,13.5
2022-10-15T07:54:34.145Z,13.4
2022-10-15T07:56:31.781Z,13.6
2022-10-15T07:58:29.418Z,13.5
2022-10-15T08:00:27.137Z,13.6
2022-10-15T08:02:32.624Z,13.6
2022-10-15T08:04:30.263Z,13.6
2022-10-15T08:06:27.911Z,13.7
2022-10-15T08:07:30.670Z,13.7
2022-10-15T08:09:28.343Z,13.7
2022-10-15T08:11:25.977Z,13.7
2022-10-15T08:13:23.616Z,13.8
2022-10-15T08:15:29.184Z,13.8
2022-10-15T08:17:26.825Z,13.8
2022-10-15T08:19:24.442Z,13.8
2022-10-15T08:21:22.067Z,13.8
2022-10-15T08:25:17.362Z,13.8
2022-10-15T08:27:14.990Z,13.9
2022-10-15T08:29:20.567Z,13.9
2022-10-15T08:31:18.182Z,14
2022-10-15T08:33:16.137Z,14
2022-10-15T08:35:13.633Z,14
2022-10-15T08:37:11.114Z,13.9
2022-10-15T08:41:06.371Z,14
2022-10-15T08:43:11.917Z,14.1
2022-10-15T08:45:09.847Z,14
2022-10-15T08:47:07.507Z,14.1
2022-10-15T08:49:05.108Z,14.2
2022-10-15T08:51:02.740Z,14.3
2022-10-15T08:53:00.364Z,14.4
2022-10-15T08:54:57.992Z,14.4
2022-10-15T08:57:03.538Z,14.6
2022-10-15T08:59:01.162Z,14.6
2022-10-15T09:00:58.906Z,14.8
2022-10-15T09:03:21.594Z,14.9
2022-10-15T09:05:24.152Z,14.9
2022-10-15T09:07:22.212Z,14.9
2022-10-15T09:09:27.338Z,14.9
2022-10-15T09:11:24.952Z,14.9
2022-10-15T09:15:22.699Z,15
2022-10-15T09:17:17.830Z,15.1
2022-10-15T09:19:15.447Z,15.1
2022-10-15T09:21:13.236Z,15.1
2022-10-15T09:23:18.652Z,15
2022-10-15T09:25:16.273Z,15.2
2022-10-15T09:27:13.897Z,15.1
2022-10-15T09:29:11.544Z,15.1
2022-10-15T09:31:09.152Z,15.3
2022-10-15T09:33:06.771Z,15.1
2022-10-15T09:37:09.975Z,15.5
2022-10-15T09:39:07.589Z,15.6
2022-10-15T09:41:05.271Z,15.7
2022-10-15T09:43:02.821Z,15.7
2022-10-15T09:45:00.464Z,15.7
2022-10-15T09:46:58.079Z,15.7
2022-10-15T09:51:01.248Z,15.9
2022-10-15T09:52:58.861Z,16
2022-10-15T09:54:56.490Z,15.9
2022-10-15T09:55:59.242Z,16
2022-10-15T09:57:56.857Z,16
2022-10-15T09:59:54.487Z,16.1
2022-10-15T10:01:52.308Z,16.3
2022-10-15T10:03:57.631Z,16.2
2022-10-15T10:05:55.268Z,16.2
2022-10-15T10:07:52.868Z,16.1
2022-10-15T10:09:50.489Z,16
2022-10-15T10:11:48.115Z,16
2022-10-15T10:19:46.471Z,16.3
2022-10-15T10:21:45.652Z,16.2
2022-10-15T10:23:43.227Z,16.1
2022-10-15T10:25:40.872Z,16
2022-10-15T10:31:41.611Z,15.9
2022-10-15T10:33:39.229Z,15.8
2022-10-15T10:35:36.849Z,15.8
2022-10-15T10:37:34.459Z,15.9
2022-10-15T10:39:32.068Z,15.8
2022-10-15T10:41:29.656Z,15.9
2022-10-15T10:43:27.253Z,15.8
2022-10-15T10:45:32.809Z,15.8
2022-10-15T10:47:30.407Z,15.8
2022-10-15T10:49:28.034Z,15.7
2022-10-15T10:50:30.802Z,15.7
2022-10-15T10:52:28.408Z,15.8
2022-10-15T10:54:26.027Z,15.8
2022-10-15T10:56:23.657Z,15.8
2022-10-15T10:58:29.222Z,15.8
2022-10-15T11:00:26.847Z,15.7
2022-10-15T11:06:19.676Z,15.7
2022-10-15T11:08:17.288Z,15.6
2022-10-15T11:10:14.932Z,15.6
2022-10-15T11:12:20.478Z,15.6
2022-10-15T11:14:18.085Z,15.7
2022-10-15T11:16:15.702Z,15.6
2022-10-15T11:18:13.305Z,15.6
2022-10-15T11:20:34.468Z,15.6
2022-10-15T11:22:08.586Z,15.5
2022-10-15T11:24:06.207Z,15.5
2022-10-15T11:26:11.760Z,15.5
2022-10-15T11:28:09.361Z,15.4
2022-10-15T11:30:07.033Z,15.4
2022-10-15T11:34:02.196Z,15.5
2022-10-15T11:35:59.843Z,15.6
2022-10-15T11:37:57.462Z,15.6
2022-10-15T11:43:58.274Z,15.5
2022-10-15T11:46:58.651Z,15.7
2022-10-15T11:48:56.259Z,15.8
2022-10-15T11:50:53.896Z,15.7
2022-10-15T11:52:59.436Z,15.6
2022-10-15T11:54:57.057Z,15.7
2022-10-15T11:56:54.698Z,15.7
2022-10-15T11:58:52.384Z,15.7
2022-10-15T12:00:49.949Z,15.6
2022-10-15T12:02:47.569Z,15.7
2022-10-15T12:06:50.744Z,15.7
2022-10-15T12:08:48.342Z,15.8
2022-10-15T12:10:45.969Z,15.7
2022-10-15T12:12:43.585Z,15.8
2022-10-15T12:16:38.822Z,15.7
2022-10-15T12:18:36.431Z,15.8
2022-10-15T12:22:39.588Z,15.8
2022-10-15T12:24:37.221Z,15.9
2022-10-15T12:30:30.114Z,15.9
2022-10-15T12:32:27.729Z,16
2022-10-15T12:36:30.897Z,16
2022-10-15T12:38:28.491Z,16
2022-10-15T12:40:51.744Z,16.1
2022-10-15T12:42:49.357Z,16
2022-10-15T12:44:46.991Z,16
2022-10-15T12:46:52.537Z,16.1
2022-10-15T12:48:50.135Z,16.1
2022-10-15T12:50:47.734Z,16.2
2022-10-15T12:52:45.364Z,16.2
2022-10-15T12:54:42.964Z,16.2
2022-10-15T12:56:40.580Z,16.3
2022-10-15T12:58:38.222Z,16.1
2022-10-15T13:04:39.015Z,16.3
2022-10-15T13:06:36.646Z,16.2
2022-10-15T13:08:34.245Z,16.3
2022-10-15T13:10:31.868Z,16.2
2022-10-15T13:12:29.470Z,16.3
2022-10-15T13:14:35.058Z,16.4
2022-10-15T13:16:32.630Z,16.4
2022-10-15T13:18:30.273Z,16.4
2022-10-15T13:20:27.873Z,16.4
2022-10-15T13:22:25.760Z,16.5
2022-10-15T13:24:23.164Z,16.5
2022-10-15T13:26:20.794Z,16.5
2022-10-15T13:28:26.351Z,16.6
2022-10-15T13:30:24.000Z,16.6
2022-10-15T13:32:21.917Z,16.6
2022-10-15T13:35:21.979Z,16.7
2022-10-15T13:37:19.765Z,16.7
2022-10-15T13:39:17.239Z,16.8
2022-10-15T13:41:22.765Z,16.7
2022-10-15T13:43:20.357Z,16.6
2022-10-15T13:45:17.948Z,16.6
2022-10-15T13:47:15.586Z,16.7
2022-10-15T13:49:13.177Z,16.6
2022-10-15T13:55:13.968Z,16.5
2022-10-15T13:57:11.605Z,16.6
2022-10-15T14:01:06.869Z,16.8
2022-10-15T14:03:04.406Z,16.7
2022-10-15T14:05:02.054Z,16.9
2022-10-15T14:09:05.209Z,16.8
2022-10-15T14:11:02.845Z,16.9
2022-10-15T14:13:00.421Z,16.9
2022-10-15T14:14:58.025Z,16.9
2022-10-15T14:16:55.383Z,16.9
2022-10-15T14:18:53.018Z,16.9
2022-10-15T14:20:50.633Z,16.8
2022-10-15T14:22:56.172Z,16.8
2022-10-15T14:24:53.775Z,16.7
2022-10-15T14:26:51.419Z,16.9
2022-10-15T14:27:54.177Z,16.8
2022-10-15T14:29:51.753Z,16.8
2022-10-15T14:31:49.414Z,16.9
2022-10-15T14:33:47.144Z,16.8
2022-10-15T14:35:52.576Z,16.8
2022-10-15T14:37:50.162Z,17
2022-10-15T14:39:47.764Z,16.8
2022-10-15T14:41:45.377Z,16.8
2022-10-15T14:43:42.967Z,16.8
2022-10-15T14:47:38.180Z,16.8
2022-10-15T14:49:43.729Z,16.8
2022-10-15T14:57:35.026Z,17
2022-10-15T14:59:32.725Z,17.1
2022-10-15T15:01:30.204Z,17
2022-10-15T15:03:35.751Z,17
2022-10-15T15:05:33.349Z,17
2022-10-15T15:07:30.944Z,17.1
2022-10-15T15:09:28.539Z,17
2022-10-15T15:11:26.171Z,16.9
2022-10-15T15:13:23.796Z,16.9
2022-10-15T15:15:21.393Z,16.9
2022-10-15T15:17:26.962Z,16.8
2022-10-15T15:19:24.562Z,16.9
2022-10-15T15:21:22.169Z,16.9
2022-10-15T15:22:25.320Z,16.8
2022-10-15T15:24:22.532Z,16.8
2022-10-15T15:26:20.119Z,16.8
2022-10-15T15:28:17.806Z,16.8
2022-10-15T15:30:23.281Z,16.8
2022-10-15T15:34:18.516Z,16.8
2022-10-15T15:36:19.103Z,16.6
2022-10-15T15:38:13.728Z,16.6
2022-10-15T15:40:11.335Z,16.6
2022-10-15T15:42:08.949Z,16.7
2022-10-15T15:44:14.501Z,16.6
2022-10-15T15:46:12.097Z,16.5
2022-10-15T15:50:07.294Z,16.4
2022-10-15T15:52:04.881Z,16.3
2022-10-15T15:54:02.506Z,16.3
2022-10-15T15:58:05.657Z,16.2
2022-10-15T16:00:03.389Z,16.2
2022-10-15T16:02:00.976Z,16.3
2022-10-15T16:04:00.046Z,16.2
2022-10-15T16:05:57.620Z,16.2
2022-10-15T16:07:55.231Z,16.1
2022-10-15T16:09:52.824Z,16.2
2022-10-15T16:11:58.351Z,15.9
2022-10-15T16:13:55.978Z,16
2022-10-15T16:15:53.576Z,15.9
2022-10-15T16:20:18.187Z,15.8
2022-10-15T16:22:15.768Z,15.9
2022-10-15T16:24:21.315Z,15.7
2022-10-15T16:26:18.936Z,15.8
2022-10-15T16:28:16.537Z,15.7
2022-10-15T16:30:14.153Z,15.6
2022-10-15T16:34:09.374Z,15.6
2022-10-15T16:36:07.014Z,15.5
2022-10-15T16:38:12.570Z,15.4
2022-10-15T16:40:10.159Z,15.5
2022-10-15T16:42:07.867Z,15.4
2022-10-15T16:44:05.388Z,15.3
2022-10-15T16:49:58.236Z,15.2
2022-10-15T16:52:03.792Z,15.1
2022-10-15T16:54:01.407Z,15.1
2022-10-15T16:55:59.002Z,15.1
2022-10-15T16:57:56.618Z,15.1
2022-10-15T16:59:54.221Z,15
2022-10-15T17:01:51.897Z,14.9
2022-10-15T17:05:55.032Z,14.9
2022-10-15T17:07:52.639Z,14.9
2022-10-15T17:10:53.014Z,14.8
2022-10-15T17:14:48.255Z,14.7
2022-10-15T17:16:45.891Z,14.6
2022-10-15T17:22:46.687Z,14.6
2022-10-15T17:24:44.349Z,14.6
2022-10-15T17:30:37.199Z,14.5
2022-10-15T17:32:42.774Z,14.5
2022-10-15T17:36:38.035Z,14.5
2022-10-15T17:38:35.642Z,14.4
2022-10-15T17:40:33.346Z,14.4
2022-10-15T17:42:30.899Z,14.4
2022-10-15T17:44:28.523Z,14.4
2022-10-15T17:46:34.200Z,14.2
2022-10-15T17:48:31.695Z,14.3
2022-10-15T17:50:29.310Z,14.4
2022-10-15T17:52:26.960Z,14.2
2022-10-15T17:54:24.587Z,14.3
2022-10-15T17:56:22.202Z,14.2
2022-10-15T17:58:19.836Z,14.2
2022-10-15T18:00:25.401Z,14.2
2022-10-15T18:02:23.088Z,14.3
2022-10-15T18:04:20.673Z,14.2
2022-10-15T18:05:23.432Z,14.3
2022-10-15T18:07:21.111Z,14.2
2022-10-15T18:11:16.308Z,14.1
2022-10-15T18:15:19.481Z,14.3
2022-10-15T18:17:17.084Z,14.1
2022-10-15T18:21:12.366Z,14.2
2022-10-15T18:23:10.021Z,14.1
2022-10-15T18:25:07.646Z,14
2022-10-15T18:29:10.829Z,14.1
2022-10-15T18:31:08.485Z,14
2022-10-15T18:33:06.066Z,14.1
2022-10-15T18:35:03.692Z,14
2022-10-15T18:37:01.307Z,14.1
2022-10-15T18:38:58.949Z,13.9
2022-10-15T18:41:04.500Z,13.9
2022-10-15T18:43:02.145Z,14
2022-10-15T18:44:59.736Z,13.9
2022-10-15T18:46:57.386Z,13.8
2022-10-15T18:48:55.013Z,13.9
2022-10-15T18:50:52.663Z,13.8
2022-10-15T18:52:50.292Z,13.9
2022-10-15T18:54:55.801Z,13.8
2022-10-15T18:59:53.880Z,13.8
2022-10-15T19:01:51.523Z,13.7
2022-10-15T19:03:49.135Z,13.6
2022-10-15T19:05:46.761Z,13.7
2022-10-15T19:07:52.289Z,13.7
2022-10-15T19:09:49.902Z,13.7
2022-10-15T19:11:47.536Z,13.7
2022-10-15T19:13:45.171Z,13.6
2022-10-15T19:15:42.811Z,13.7
2022-10-15T19:19:38.050Z,13.7
2022-10-15T19:21:43.575Z,13.7
2022-10-15T19:25:38.853Z,13.6
2022-10-15T19:27:36.476Z,13.6
2022-10-15T19:29:35.267Z,13.7
2022-10-15T19:33:29.371Z,13.5
2022-10-15T19:35:34.919Z,13.5
2022-10-15T19:37:32.562Z,13.5
2022-10-15T19:39:30.217Z,13.6
2022-10-15T19:43:25.456Z,13.6
2022-10-15T19:45:23.092Z,13.5
2022-10-15T19:47:20.703Z,13.6
2022-10-15T19:49:26.234Z,13.7
2022-10-15T19:51:24.044Z,13.6
2022-10-15T19:53:21.514Z,13.6
2022-10-15T19:55:44.217Z,13.7
2022-10-15T19:57:41.826Z,13.7
2022-10-15T19:59:39.467Z,13.7
2022-10-15T20:01:45.204Z,13.7
2022-10-15T20:03:42.618Z,13.8
2022-10-15T20:05:40.234Z,13.8
2022-10-15T20:07:37.887Z,14
2022-10-15T20:09:35.519Z,14
2022-10-15T20:11:33.142Z,14
2022-10-15T20:13:30.792Z,14.1
2022-10-15T20:15:36.318Z,14
2022-10-15T20:17:34.507Z,14.2
2022-10-15T20:19:32.130Z,14.2
2022-10-15T20:23:27.413Z,14.3
2022-10-15T20:25:25.036Z,14.3
2022-10-15T20:27:22.820Z,14.3
2022-10-15T20:29:28.186Z,14.4
2022-10-15T20:31:25.855Z,14.2
2022-10-15T20:33:23.509Z,14.4
2022-10-15T20:35:21.144Z,14.4
2022-10-15T20:37:18.750Z,14.4
2022-10-15T20:39:16.395Z,14.5
2022-10-15T20:41:14.018Z,14.5
2022-10-15T20:43:19.555Z,14.4
2022-10-15T20:45:17.199Z,14.5
2022-10-15T20:47:14.853Z,14.5
2022-10-15T20:48:17.640Z,14.5
2022-10-15T20:50:15.260Z,14.5
2022-10-15T21:00:11.346Z,14.5
2022-10-15T21:02:08.970Z,14.5
2022-10-15T21:04:06.598Z,14.5
2022-10-15T21:06:04.234Z,14.5
2022-10-15T21:08:01.834Z,14.5
2022-10-15T21:10:07.401Z,14.3
2022-10-15T21:12:05.018Z,14.4
2022-10-15T21:14:02.640Z,14.4
2022-10-15T21:16:00.271Z,14.4
2022-10-15T21:17:57.913Z,14.4
2022-10-15T21:19:55.539Z,14.4
2022-10-15T21:21:53.188Z,14.4
2022-10-15T21:23:58.710Z,14.2
2022-10-15T21:25:56.336Z,14.3
2022-10-15T21:29:51.577Z,14.2
2022-10-15T21:31:49.223Z,14.3
2022-10-15T21:33:46.844Z,14.3
2022-10-15T21:35:44.468Z,14.3
2022-10-15T21:37:50.026Z,14.1
2022-10-15T21:39:47.664Z,14.2
2022-10-15T21:41:45.306Z,14.3
2022-10-15T21:42:48.055Z,14.1
2022-10-15T21:44:47.269Z,14.1
2022-10-15T21:46:44.842Z,14.1
2022-10-15T21:48:42.493Z,14
2022-10-15T21:50:48.051Z,14.1
2022-10-15T21:52:45.670Z,14.1
2022-10-15T21:54:43.301Z,14
2022-10-15T21:58:38.579Z,14
2022-10-15T22:00:36.195Z,14.1
2022-10-15T22:04:39.397Z,14
2022-10-15T22:06:37.017Z,14
2022-10-15T22:08:34.654Z,14
2022-10-15T22:10:32.290Z,14
2022-10-15T22:12:29.911Z,14
2022-10-15T22:14:27.663Z,14
2022-10-15T22:16:25.163Z,14
2022-10-15T22:18:30.736Z,14
2022-10-15T22:20:28.336Z,14
2022-10-15T22:22:26.307Z,14
2022-10-15T22:24:23.603Z,13.9
2022-10-15T22:26:21.219Z,14
2022-10-15T22:28:18.902Z,14.1
2022-10-15T22:30:16.477Z,14.1
2022-10-15T22:34:19.632Z,14.1
2022-10-15T22:36:17.239Z,14.2
2022-10-15T22:37:20.012Z,14.2
2022-10-15T22:39:17.631Z,14.2
2022-10-15T22:41:15.268Z,14.2
2022-10-15T22:43:12.914Z,14.2
2022-10-15T22:45:18.457Z,14.1
2022-10-15T22:47:16.084Z,14.1
2022-10-15T22:49:13.700Z,14.2
2022-10-15T22:53:08.958Z,14.1
2022-10-15T22:55:06.582Z,14.1
2022-10-15T22:57:04.226Z,14.2
2022-10-15T23:01:07.429Z,14.2
2022-10-15T23:05:02.648Z,14.3
2022-10-15T23:07:00.264Z,14.2
2022-10-15T23:08:57.885Z,14.2
2022-10-15T23:10:55.517Z,14.1
2022-10-15T23:13:01.055Z,14.1
2022-10-15T23:14:58.662Z,14.1
2022-10-15T23:16:56.278Z,14.2
2022-10-15T23:18:53.906Z,14.2
2022-10-15T23:20:51.525Z,14.2
2022-10-15T23:22:49.143Z,14.1
2022-10-15T23:24:46.769Z,14.2
2022-10-15T23:28:50.041Z,14.1
2022-10-15T23:30:47.578Z,14
2022-10-15T23:33:14.521Z,14.1
2022-10-15T23:35:12.164Z,14
2022-10-15T23:37:09.769Z,14
2022-10-15T23:39:15.307Z,14.1
2022-10-15T23:41:12.941Z,14
2022-10-15T23:43:10.558Z,13.9
2022-10-15T23:45:08.181Z,14
2022-10-15T23:47:05.823Z,13.8
2022-10-15T23:53:06.607Z,13.8
2022-10-15T23:57:01.850Z,13.8
2022-10-15T23:58:59.509Z,13.8
